• Join FlightAware (Why Join?)
  • Login
  • US Flag 
10:40AM EDT


 

Airport Tracker/Info


-or-


 

Live Flight TrackerFlight Track Log ✈ AWI3951 ✈ 02-May-2013 ✈ KCLT - KAGS

Flight Track Log - Related Links

Times and Time Zones

All times are in EDT time to prevent confusion due to time zone crossing. See the AWI3951 flight status page for this flight to view local times or setup timezone preferences in your user account.

Time Position Orientation Groundspeed Altitude Reporting Facility
EDT Latitude Longitude Course Direction KTS MPH feet Rate Location/Type
10:56PM 35.2283 -80.9394 194° South 160 184 1,500  Level Atlanta Center
10:57PM 35.2839 -80.9067 26° Northeast 208 239 4,800 2,580 Climbing Atlanta Center
10:58PM 34.9858 -81.0773 224° Southwest  Level Estimated
10:58PM 35.2553 -80.8417 118° Southeast 259 298 7,600  Level Atlanta Center
10:59PM 34.9086 -81.0380 157° South  Level FlightAware Approximate
11:00PM 34.8234 -81.0233 192° South  Level FlightAware Approximate
11:00PM 35.1178 -80.8725 190° South 321 369 11,000  Level Jacksonville Center
11:01PM 34.7420 -81.0461 194° South  Level FlightAware Approximate
11:01PM 35.0328 -80.9103 200° South 316 364 12,000  Level Jacksonville Center
11:02PM 34.9375 -80.9503 199° South 357 411 12,000  Level Jacksonville Center
11:03PM 34.8319 -80.9958 200° South 370 426 12,000  Level Jacksonville Center
11:04PM 34.7322 -81.0358 198° South 375 432 12,000  Level Jacksonville Center
11:05PM 34.6350 -81.0783 200° South 375 432 12,000  Level Jacksonville Center
11:06PM 34.5353 -81.1131 196° South 380 437 12,100  Climbing Jacksonville Center
11:07PM 34.4333 -81.1378 191° South 380 437 12,100  Level Jacksonville Center
11:08PM 34.3467 -81.2050 213° Southwest 369 425 12,100 -60 Level Jacksonville Center
11:09PM 34.2622 -81.2744 214° Southwest 369 425 12,000 -60 Descending Jacksonville Center
11:10PM 34.1733 -81.3439 213° Southwest 369 425 12,000 -480 Level Jacksonville Center
11:11PM 34.0803 -81.4133 212° Southwest 379 436 11,100 -480 Descending Jacksonville Center
11:12PM 33.9975 -81.4822 215° Southwest 381 438 11,100 -60 Level Jacksonville Center
11:14PM 33.8594 -81.5872 212° Southwest 372 428 11,000 -60 Descending Atlanta Center
11:15PM 33.7731 -81.6522 212° Southwest 372 428 11,000 -120 Level Atlanta Center
11:16PM 33.6992 -81.7092 213° Southwest 350 403 10,800 -660 Descending Atlanta Center
11:17PM 33.6375 -81.7583 214° Southwest 308 354 9,700 -1,200 Descending Atlanta Center
11:18PM 33.5794 -81.7922 206° Southwest 267 307 8,500 -1,200 Descending Atlanta Center